sensor_id;sensor_type;location;lat;lon;timestamp;temperature;humidity
15343;DHT22;7771;48.478;8.936;2023-03-20T00:01:53;11.70;99.90
15343;DHT22;7771;48.478;8.936;2023-03-20T00:04:20;11.60;99.90
15343;DHT22;7771;48.478;8.936;2023-03-20T00:06:47;11.60;99.90
15343;DHT22;7771;48.478;8.936;2023-03-20T00:09:13;11.50;99.90
15343;DHT22;7771;48.478;8.936;2023-03-20T00:11:46;11.50;99.90
15343;DHT22;7771;48.478;8.936;2023-03-20T00:14:13;11.50;99.90
15343;DHT22;7771;48.478;8.936;2023-03-20T00:16:40;11.50;99.90
15343;DHT22;7771;48.478;8.936;2023-03-20T00:19:09;11.50;99.90
15343;DHT22;7771;48.478;8.936;2023-03-20T00:21:33;11.40;99.90
15343;DHT22;7771;48.478;8.936;2023-03-20T00:24:00;11.40;99.90
15343;DHT22;7771;48.478;8.936;2023-03-20T00:26:30;11.40;99.90
15343;DHT22;7771;48.478;8.936;2023-03-20T00:28:55;11.30;99.90
15343;DHT22;7771;48.478;8.936;2023-03-20T00:31:27;11.30;99.90
15343;DHT22;7771;48.478;8.936;2023-03-20T00:33:55;11.30;99.90
15343;DHT22;7771;48.478;8.936;2023-03-20T00:36:20;11.30;99.90
15343;DHT22;7771;48.478;8.936;2023-03-20T00:38:47;11.30;99.90
15343;DHT22;7771;48.478;8.936;2023-03-20T00:41:22;11.30;99.90
15343;DHT22;7771;48.478;8.936;2023-03-20T00:43:48;11.30;99.90
15343;DHT22;7771;48.478;8.936;2023-03-20T00:46:15;11.30;99.90
15343;DHT22;7771;48.478;8.936;2023-03-20T00:48:42;11.30;99.90
15343;DHT22;7771;48.478;8.936;2023-03-20T00:51:09;11.30;99.90
15343;DHT22;7771;48.478;8.936;2023-03-20T00:53:37;11.20;99.90
15343;DHT22;7771;48.478;8.936;2023-03-20T00:56:04;11.20;99.90
15343;DHT22;7771;48.478;8.936;2023-03-20T00:58:32;11.20;99.90
15343;DHT22;7771;48.478;8.936;2023-03-20T01:00:59;11.20;99.90
15343;DHT22;7771;48.478;8.936;2023-03-20T01:03:27;11.20;99.90
15343;DHT22;7771;48.478;8.936;2023-03-20T01:05:54;11.20;99.90
15343;DHT22;7771;48.478;8.936;2023-03-20T01:08:22;11.20;99.90
15343;DHT22;7771;48.478;8.936;2023-03-20T01:10:49;11.20;99.90
15343;DHT22;7771;48.478;8.936;2023-03-20T01:13:20;11.10;99.90
15343;DHT22;7771;48.478;8.936;2023-03-20T01:15:46;11.10;99.90
15343;DHT22;7771;48.478;8.936;2023-03-20T01:18:14;11.20;99.90
15343;DHT22;7771;48.478;8.936;2023-03-20T01:20:40;11.20;99.90
15343;DHT22;7771;48.478;8.936;2023-03-20T01:23:07;11.20;99.90
15343;DHT22;7771;48.478;8.936;2023-03-20T01:25:33;11.20;99.90
15343;DHT22;7771;48.478;8.936;2023-03-20T01:28:00;11.20;99.90
15343;DHT22;7771;48.478;8.936;2023-03-20T01:30:28;11.20;99.90
15343;DHT22;7771;48.478;8.936;2023-03-20T01:32:54;11.20;99.90
15343;DHT22;7771;48.478;8.936;2023-03-20T01:35:21;11.10;99.90
15343;DHT22;7771;48.478;8.936;2023-03-20T01:37:47;11.20;99.90
15343;DHT22;7771;48.478;8.936;2023-03-20T01:40:25;11.20;99.90
15343;DHT22;7771;48.478;8.936;2023-03-20T01:42:48;11.20;99.90
15343;DHT22;7771;48.478;8.936;2023-03-20T01:45:15;11.20;99.90
15343;DHT22;7771;48.478;8.936;2023-03-20T01:47:41;11.20;99.90
15343;DHT22;7771;48.478;8.936;2023-03-20T01:50:18;11.20;99.90
15343;DHT22;7771;48.478;8.936;2023-03-20T01:52:44;11.20;99.90
15343;DHT22;7771;48.478;8.936;2023-03-20T01:55:11;11.30;99.90
15343;DHT22;7771;48.478;8.936;2023-03-20T01:57:39;11.30;99.90
15343;DHT22;7771;48.478;8.936;2023-03-20T02:00:07;11.30;99.90
15343;DHT22;7771;48.478;8.936;2023-03-20T02:02:33;11.30;99.90
15343;DHT22;7771;48.478;8.936;2023-03-20T02:05:01;11.20;99.90
15343;DHT22;7771;48.478;8.936;2023-03-20T02:07:27;11.20;99.90
15343;DHT22;7771;48.478;8.936;2023-03-20T02:09:54;11.20;99.90
15343;DHT22;7771;48.478;8.936;2023-03-20T02:12:21;11.20;99.90
15343;DHT22;7771;48.478;8.936;2023-03-20T02:14:48;11.20;99.90
15343;DHT22;7771;48.478;8.936;2023-03-20T02:17:15;11.20;99.90
15343;DHT22;7771;48.478;8.936;2023-03-20T02:20:20;11.20;99.90
15343;DHT22;7771;48.478;8.936;2023-03-20T02:27:56;11.10;99.90
15343;DHT22;7771;48.478;8.936;2023-03-20T02:33:07;11.10;99.90
15343;DHT22;7771;48.478;8.936;2023-03-20T02:35:38;11.10;99.90
15343;DHT22;7771;48.478;8.936;2023-03-20T02:38:09;11.20;99.90
15343;DHT22;7771;48.478;8.936;2023-03-20T02:40:40;11.20;99.90
15343;DHT22;7771;48.478;8.936;2023-03-20T02:45:47;11.10;99.90
15343;DHT22;7771;48.478;8.936;2023-03-20T02:48:14;11.10;99.90
15343;DHT22;7771;48.478;8.936;2023-03-20T02:50:46;11.10;99.90
15343;DHT22;7771;48.478;8.936;2023-03-20T02:53:17;11.10;99.90
15343;DHT22;7771;48.478;8.936;2023-03-20T02:55:47;11.00;99.90
15343;DHT22;7771;48.478;8.936;2023-03-20T02:58:15;11.00;99.90
15343;DHT22;7771;48.478;8.936;2023-03-20T03:00:45;11.00;99.90
15343;DHT22;7771;48.478;8.936;2023-03-20T03:03:23;11.00;99.90
15343;DHT22;7771;48.478;8.936;2023-03-20T03:05:53;11.00;99.90
15343;DHT22;7771;48.478;8.936;2023-03-20T03:08:18;11.00;99.90
15343;DHT22;7771;48.478;8.936;2023-03-20T03:10:48;10.90;99.90
15343;DHT22;7771;48.478;8.936;2023-03-20T03:13:16;10.90;99.90
15343;DHT22;7771;48.478;8.936;2023-03-20T03:15:43;10.90;99.90
15343;DHT22;7771;48.478;8.936;2023-03-20T03:18:12;10.90;99.90
15343;DHT22;7771;48.478;8.936;2023-03-20T03:20:37;10.90;99.90
15343;DHT22;7771;48.478;8.936;2023-03-20T03:23:04;10.90;99.90
15343;DHT22;7771;48.478;8.936;2023-03-20T03:25:33;10.90;99.90
15343;DHT22;7771;48.478;8.936;2023-03-20T03:30:33;10.90;99.90
15343;DHT22;7771;48.478;8.936;2023-03-20T03:33:12;10.90;99.90
15343;DHT22;7771;48.478;8.936;2023-03-20T03:35:38;10.90;99.90
15343;DHT22;7771;48.478;8.936;2023-03-20T03:38:25;10.90;99.90
15343;DHT22;7771;48.478;8.936;2023-03-20T03:40:58;10.80;99.90
15343;DHT22;7771;48.478;8.936;2023-03-20T03:43:40;10.80;99.90
15343;DHT22;7771;48.478;8.936;2023-03-20T03:46:09;10.90;99.90
15343;DHT22;7771;48.478;8.936;2023-03-20T03:48:38;10.80;99.90
15343;DHT22;7771;48.478;8.936;2023-03-20T03:51:06;10.80;99.90
15343;DHT22;7771;48.478;8.936;2023-03-20T03:53:34;10.80;99.90
15343;DHT22;7771;48.478;8.936;2023-03-20T03:56:00;10.80;99.90
15343;DHT22;7771;48.478;8.936;2023-03-20T03:58:41;10.80;99.90
15343;DHT22;7771;48.478;8.936;2023-03-20T04:01:08;10.80;99.90
15343;DHT22;7771;48.478;8.936;2023-03-20T04:03:37;10.80;99.90
15343;DHT22;7771;48.478;8.936;2023-03-20T04:08:29;10.80;99.90
15343;DHT22;7771;48.478;8.936;2023-03-20T04:10:56;10.80;99.90
15343;DHT22;7771;48.478;8.936;2023-03-20T04:13:23;10.80;99.90
15343;DHT22;7771;48.478;8.936;2023-03-20T04:15:49;10.80;99.90
15343;DHT22;7771;48.478;8.936;2023-03-20T04:18:17;10.90;99.90
15343;DHT22;7771;48.478;8.936;2023-03-20T04:20:44;10.80;99.90
15343;DHT22;7771;48.478;8.936;2023-03-20T04:23:11;10.90;99.90
15343;DHT22;7771;48.478;8.936;2023-03-20T04:25:37;10.80;99.90
15343;DHT22;7771;48.478;8.936;2023-03-20T04:28:04;10.80;99.90
15343;DHT22;7771;48.478;8.936;2023-03-20T04:30:31;10.80;99.90
15343;DHT22;7771;48.478;8.936;2023-03-20T04:32:57;10.80;99.90
15343;DHT22;7771;48.478;8.936;2023-03-20T04:35:24;10.80;99.90
15343;DHT22;7771;48.478;8.936;2023-03-20T04:37:51;10.80;99.90
15343;DHT22;7771;48.478;8.936;2023-03-20T04:40:18;10.80;99.90
15343;DHT22;7771;48.478;8.936;2023-03-20T04:42:45;10.80;99.90
15343;DHT22;7771;48.478;8.936;2023-03-20T04:45:12;10.80;99.90
15343;DHT22;7771;48.478;8.936;2023-03-20T04:47:38;10.80;99.90
15343;DHT22;7771;48.478;8.936;2023-03-20T04:50:06;10.80;99.90
15343;DHT22;7771;48.478;8.936;2023-03-20T04:52:33;10.80;99.90
15343;DHT22;7771;48.478;8.936;2023-03-20T04:55:00;10.90;99.90
15343;DHT22;7771;48.478;8.936;2023-03-20T04:57:28;10.90;99.90
15343;DHT22;7771;48.478;8.936;2023-03-20T04:59:55;10.90;99.90
15343;DHT22;7771;48.478;8.936;2023-03-20T05:02:22;10.90;99.90
15343;DHT22;7771;48.478;8.936;2023-03-20T05:04:49;10.90;99.90
15343;DHT22;7771;48.478;8.936;2023-03-20T05:07:17;10.90;99.90
15343;DHT22;7771;48.478;8.936;2023-03-20T05:09:44;10.90;99.90
15343;DHT22;7771;48.478;8.936;2023-03-20T05:12:11;10.90;99.90
15343;DHT22;7771;48.478;8.936;2023-03-20T05:14:38;10.90;99.90
15343;DHT22;7771;48.478;8.936;2023-03-20T05:17:05;10.90;99.90
15343;DHT22;7771;48.478;8.936;2023-03-20T05:19:32;11.00;99.90
15343;DHT22;7771;48.478;8.936;2023-03-20T05:21:59;11.00;99.90
15343;DHT22;7771;48.478;8.936;2023-03-20T05:24:25;11.00;99.90
15343;DHT22;7771;48.478;8.936;2023-03-20T05:26:52;10.90;99.90
15343;DHT22;7771;48.478;8.936;2023-03-20T05:29:19;11.00;99.90
15343;DHT22;7771;48.478;8.936;2023-03-20T05:31:46;11.00;99.90
15343;DHT22;7771;48.478;8.936;2023-03-20T05:34:13;10.90;99.90
15343;DHT22;7771;48.478;8.936;2023-03-20T05:36:40;11.00;99.90
15343;DHT22;7771;48.478;8.936;2023-03-20T05:39:06;11.00;99.90
15343;DHT22;7771;48.478;8.936;2023-03-20T05:41:34;10.90;99.90
15343;DHT22;7771;48.478;8.936;2023-03-20T05:44:00;11.00;99.90
15343;DHT22;7771;48.478;8.936;2023-03-20T05:46:27;11.00;99.90
15343;DHT22;7771;48.478;8.936;2023-03-20T05:48:54;11.00;99.90
15343;DHT22;7771;48.478;8.936;2023-03-20T05:51:21;11.00;99.90
15343;DHT22;7771;48.478;8.936;2023-03-20T05:56:16;11.00;99.90
15343;DHT22;7771;48.478;8.936;2023-03-20T05:58:44;11.10;99.90
15343;DHT22;7771;48.478;8.936;2023-03-20T06:01:11;11.10;99.90
15343;DHT22;7771;48.478;8.936;2023-03-20T06:03:38;11.10;99.90
15343;DHT22;7771;48.478;8.936;2023-03-20T06:06:05;11.00;99.90
15343;DHT22;7771;48.478;8.936;2023-03-20T06:08:32;11.10;99.90
15343;DHT22;7771;48.478;8.936;2023-03-20T06:11:00;11.10;99.90
15343;DHT22;7771;48.478;8.936;2023-03-20T06:13:27;11.10;99.90
15343;DHT22;7771;48.478;8.936;2023-03-20T06:15:55;11.20;99.90
15343;DHT22;7771;48.478;8.936;2023-03-20T06:18:22;11.10;99.90
15343;DHT22;7771;48.478;8.936;2023-03-20T06:20:53;11.10;99.90
15343;DHT22;7771;48.478;8.936;2023-03-20T06:23:20;11.10;99.90
15343;DHT22;7771;48.478;8.936;2023-03-20T06:25:47;11.20;99.90
15343;DHT22;7771;48.478;8.936;2023-03-20T06:28:14;11.10;99.90
15343;DHT22;7771;48.478;8.936;2023-03-20T06:30:42;11.20;99.90
15343;DHT22;7771;48.478;8.936;2023-03-20T06:33:08;11.20;99.90
15343;DHT22;7771;48.478;8.936;2023-03-20T06:35:35;11.20;99.90
15343;DHT22;7771;48.478;8.936;2023-03-20T06:38:02;11.20;99.90
15343;DHT22;7771;48.478;8.936;2023-03-20T06:40:29;11.20;99.90
15343;DHT22;7771;48.478;8.936;2023-03-20T06:42:56;11.20;99.90
15343;DHT22;7771;48.478;8.936;2023-03-20T06:45:23;11.20;99.90
15343;DHT22;7771;48.478;8.936;2023-03-20T06:47:50;11.30;99.90
15343;DHT22;7771;48.478;8.936;2023-03-20T06:50:17;11.30;99.90
15343;DHT22;7771;48.478;8.936;2023-03-20T06:52:44;11.30;99.90
15343;DHT22;7771;48.478;8.936;2023-03-20T06:55:12;11.30;99.90
15343;DHT22;7771;48.478;8.936;2023-03-20T06:57:39;11.30;99.90
15343;DHT22;7771;48.478;8.936;2023-03-20T07:00:07;11.30;99.90
15343;DHT22;7771;48.478;8.936;2023-03-20T07:02:34;11.40;99.90
15343;DHT22;7771;48.478;8.936;2023-03-20T07:05:01;11.40;99.90
15343;DHT22;7771;48.478;8.936;2023-03-20T07:07:28;11.40;99.90
15343;DHT22;7771;48.478;8.936;2023-03-20T07:09:56;11.50;99.90
15343;DHT22;7771;48.478;8.936;2023-03-20T07:12:23;11.50;99.90
15343;DHT22;7771;48.478;8.936;2023-03-20T07:14:50;11.50;99.90
15343;DHT22;7771;48.478;8.936;2023-03-20T07:17:17;11.60;99.90
15343;DHT22;7771;48.478;8.936;2023-03-20T07:19:44;11.70;99.90
15343;DHT22;7771;48.478;8.936;2023-03-20T07:22:16;11.80;99.90
15343;DHT22;7771;48.478;8.936;2023-03-20T07:24:38;11.90;99.90
15343;DHT22;7771;48.478;8.936;2023-03-20T07:27:05;12.00;99.90
15343;DHT22;7771;48.478;8.936;2023-03-20T07:29:31;12.00;99.90
15343;DHT22;7771;48.478;8.936;2023-03-20T07:31:58;12.00;99.90
15343;DHT22;7771;48.478;8.936;2023-03-20T07:34:25;12.00;99.90
15343;DHT22;7771;48.478;8.936;2023-03-20T07:39:21;11.90;99.90
15343;DHT22;7771;48.478;8.936;2023-03-20T07:41:48;11.90;99.90
15343;DHT22;7771;48.478;8.936;2023-03-20T07:44:15;11.90;99.90
15343;DHT22;7771;48.478;8.936;2023-03-20T07:46:42;11.90;99.90
15343;DHT22;7771;48.478;8.936;2023-03-20T07:49:09;12.00;99.90
15343;DHT22;7771;48.478;8.936;2023-03-20T07:51:35;12.00;99.90
15343;DHT22;7771;48.478;8.936;2023-03-20T07:54:03;12.00;99.90
15343;DHT22;7771;48.478;8.936;2023-03-20T07:56:29;12.00;99.90
15343;DHT22;7771;48.478;8.936;2023-03-20T07:58:56;12.10;99.90
15343;DHT22;7771;48.478;8.936;2023-03-20T08:01:23;12.10;99.90
15343;DHT22;7771;48.478;8.936;2023-03-20T08:03:50;12.10;99.90
15343;DHT22;7771;48.478;8.936;2023-03-20T08:06:18;12.10;99.90
15343;DHT22;7771;48.478;8.936;2023-03-20T08:08:45;12.10;99.90
15343;DHT22;7771;48.478;8.936;2023-03-20T08:11:12;12.10;99.90
15343;DHT22;7771;48.478;8.936;2023-03-20T08:13:40;12.10;99.90
15343;DHT22;7771;48.478;8.936;2023-03-20T08:16:07;12.20;99.90
15343;DHT22;7771;48.478;8.936;2023-03-20T08:18:34;12.20;99.90
15343;DHT22;7771;48.478;8.936;2023-03-20T08:21:02;12.30;99.90
15343;DHT22;7771;48.478;8.936;2023-03-20T08:23:29;12.30;99.90
15343;DHT22;7771;48.478;8.936;2023-03-20T08:25:55;12.30;99.90
15343;DHT22;7771;48.478;8.936;2023-03-20T08:28:23;12.30;99.90
15343;DHT22;7771;48.478;8.936;2023-03-20T08:30:50;12.30;99.90
15343;DHT22;7771;48.478;8.936;2023-03-20T08:33:17;12.40;99.90
15343;DHT22;7771;48.478;8.936;2023-03-20T08:35:53;12.40;99.90
15343;DHT22;7771;48.478;8.936;2023-03-20T08:38:12;12.50;99.90
15343;DHT22;7771;48.478;8.936;2023-03-20T08:40:39;12.50;99.90
15343;DHT22;7771;48.478;8.936;2023-03-20T08:43:06;12.50;99.90
15343;DHT22;7771;48.478;8.936;2023-03-20T08:45:33;12.60;99.90
15343;DHT22;7771;48.478;8.936;2023-03-20T08:48:00;12.60;99.90
15343;DHT22;7771;48.478;8.936;2023-03-20T08:50:27;12.70;99.90
15343;DHT22;7771;48.478;8.936;2023-03-20T08:52:54;12.80;99.90
15343;DHT22;7771;48.478;8.936;2023-03-20T08:55:22;12.90;99.90
15343;DHT22;7771;48.478;8.936;2023-03-20T08:57:49;13.00;99.90
15343;DHT22;7771;48.478;8.936;2023-03-20T09:00:16;13.10;99.90
15343;DHT22;7771;48.478;8.936;2023-03-20T09:02:43;13.20;99.90
15343;DHT22;7771;48.478;8.936;2023-03-20T09:05:09;13.40;99.90
15343;DHT22;7771;48.478;8.936;2023-03-20T09:07:36;13.60;99.90
15343;DHT22;7771;48.478;8.936;2023-03-20T09:10:04;13.80;99.90
15343;DHT22;7771;48.478;8.936;2023-03-20T09:12:31;13.90;99.90
15343;DHT22;7771;48.478;8.936;2023-03-20T09:14:58;14.20;99.90
15343;DHT22;7771;48.478;8.936;2023-03-20T09:17:24;14.40;99.90
15343;DHT22;7771;48.478;8.936;2023-03-20T09:19:51;14.60;99.90
15343;DHT22;7771;48.478;8.936;2023-03-20T09:22:18;14.90;99.90
15343;DHT22;7771;48.478;8.936;2023-03-20T09:24:45;15.10;99.90
15343;DHT22;7771;48.478;8.936;2023-03-20T09:27:12;15.20;99.90
15343;DHT22;7771;48.478;8.936;2023-03-20T09:29:39;15.20;99.90
15343;DHT22;7771;48.478;8.936;2023-03-20T09:32:06;15.30;99.90
15343;DHT22;7771;48.478;8.936;2023-03-20T09:34:33;15.30;99.90
15343;DHT22;7771;48.478;8.936;2023-03-20T09:37:00;15.40;99.90
15343;DHT22;7771;48.478;8.936;2023-03-20T09:39:28;15.40;99.90
15343;DHT22;7771;48.478;8.936;2023-03-20T09:41:55;15.40;99.90
15343;DHT22;7771;48.478;8.936;2023-03-20T09:44:33;15.50;99.90
15343;DHT22;7771;48.478;8.936;2023-03-20T09:47:02;15.50;99.90
15343;DHT22;7771;48.478;8.936;2023-03-20T09:49:43;15.50;99.90
15343;DHT22;7771;48.478;8.936;2023-03-20T09:52:15;15.60;99.90
15343;DHT22;7771;48.478;8.936;2023-03-20T09:54:41;15.60;99.90
15343;DHT22;7771;48.478;8.936;2023-03-20T09:57:14;15.60;99.90
15343;DHT22;7771;48.478;8.936;2023-03-20T09:59:35;15.70;99.90
15343;DHT22;7771;48.478;8.936;2023-03-20T10:02:07;15.70;99.90
15343;DHT22;7771;48.478;8.936;2023-03-20T10:04:32;15.80;99.90
15343;DHT22;7771;48.478;8.936;2023-03-20T10:07:00;15.80;99.90
15343;DHT22;7771;48.478;8.936;2023-03-20T10:09:27;15.80;99.90
15343;DHT22;7771;48.478;8.936;2023-03-20T10:12:01;15.70;99.90
15343;DHT22;7771;48.478;8.936;2023-03-20T10:15:02;15.70;99.90
15343;DHT22;7771;48.478;8.936;2023-03-20T10:17:35;15.70;99.90
15343;DHT22;7771;48.478;8.936;2023-03-20T10:19:58;15.70;99.90
15343;DHT22;7771;48.478;8.936;2023-03-20T10:22:28;15.60;99.90
15343;DHT22;7771;48.478;8.936;2023-03-20T10:24:57;15.70;99.90
15343;DHT22;7771;48.478;8.936;2023-03-20T10:27:23;15.80;99.90
15343;DHT22;7771;48.478;8.936;2023-03-20T10:29:53;15.80;99.90
15343;DHT22;7771;48.478;8.936;2023-03-20T10:32:24;15.90;99.90
15343;DHT22;7771;48.478;8.936;2023-03-20T10:34:55;16.00;99.90
15343;DHT22;7771;48.478;8.936;2023-03-20T10:37:32;16.10;99.60
15343;DHT22;7771;48.478;8.936;2023-03-20T10:42:46;16.30;98.80
15343;DHT22;7771;48.478;8.936;2023-03-20T10:45:25;16.20;98.50
15343;DHT22;7771;48.478;8.936;2023-03-20T10:47:46;16.20;98.60
15343;DHT22;7771;48.478;8.936;2023-03-20T10:50:16;16.20;98.10
15343;DHT22;7771;48.478;8.936;2023-03-20T10:52:41;16.30;98.20
15343;DHT22;7771;48.478;8.936;2023-03-20T10:55:11;16.30;98.40
15343;DHT22;7771;48.478;8.936;2023-03-20T10:57:37;16.50;98.60
15343;DHT22;7771;48.478;8.936;2023-03-20T11:00:04;16.60;98.10
15343;DHT22;7771;48.478;8.936;2023-03-20T11:02:31;16.60;97.70
15343;DHT22;7771;48.478;8.936;2023-03-20T11:04:59;16.70;97.40
15343;DHT22;7771;48.478;8.936;2023-03-20T11:07:27;16.70;97.50
15343;DHT22;7771;48.478;8.936;2023-03-20T11:10:13;16.80;97.40
15343;DHT22;7771;48.478;8.936;2023-03-20T11:12:43;16.80;97.40
15343;DHT22;7771;48.478;8.936;2023-03-20T11:15:30;16.70;97.40
15343;DHT22;7771;48.478;8.936;2023-03-20T11:17:58;16.70;97.40
15343;DHT22;7771;48.478;8.936;2023-03-20T11:20:24;16.70;97.70
15343;DHT22;7771;48.478;8.936;2023-03-20T11:22:56;16.70;97.70
15343;DHT22;7771;48.478;8.936;2023-03-20T11:25:27;16.80;97.90
15343;DHT22;7771;48.478;8.936;2023-03-20T11:27:50;16.80;97.40
15343;DHT22;7771;48.478;8.936;2023-03-20T11:30:16;16.80;97.00
15343;DHT22;7771;48.478;8.936;2023-03-20T11:32:46;16.70;97.30
15343;DHT22;7771;48.478;8.936;2023-03-20T11:35:30;16.70;97.20
15343;DHT22;7771;48.478;8.936;2023-03-20T11:40:23;16.70;96.80
15343;DHT22;7771;48.478;8.936;2023-03-20T11:42:56;16.70;96.50
15343;DHT22;7771;48.478;8.936;2023-03-20T11:45:22;16.60;96.70
15343;DHT22;7771;48.478;8.936;2023-03-20T11:47:50;16.60;96.20
15343;DHT22;7771;48.478;8.936;2023-03-20T11:53:22;16.40;96.30
15343;DHT22;7771;48.478;8.936;2023-03-20T11:56:09;16.30;96.40
15343;DHT22;7771;48.478;8.936;2023-03-20T11:58:36;16.20;96.50
15343;DHT22;7771;48.478;8.936;2023-03-20T12:01:02;16.30;96.60
15343;DHT22;7771;48.478;8.936;2023-03-20T12:03:38;16.30;96.70
15343;DHT22;7771;48.478;8.936;2023-03-20T12:06:04;16.40;97.00
15343;DHT22;7771;48.478;8.936;2023-03-20T12:08:30;16.60;96.80
15343;DHT22;7771;48.478;8.936;2023-03-20T12:10:59;16.70;96.40
15343;DHT22;7771;48.478;8.936;2023-03-20T12:13:27;16.80;96.10
15343;DHT22;7771;48.478;8.936;2023-03-20T12:15:54;16.90;95.80
15343;DHT22;7771;48.478;8.936;2023-03-20T12:18:29;16.80;95.80
15343;DHT22;7771;48.478;8.936;2023-03-20T12:21:09;16.70;95.70
15343;DHT22;7771;48.478;8.936;2023-03-20T12:23:39;16.70;96.00
15343;DHT22;7771;48.478;8.936;2023-03-20T12:26:07;16.70;96.40
15343;DHT22;7771;48.478;8.936;2023-03-20T12:28:55;16.60;96.50
15343;DHT22;7771;48.478;8.936;2023-03-20T12:31:27;16.40;96.30
15343;DHT22;7771;48.478;8.936;2023-03-20T12:34:00;16.20;96.50
15343;DHT22;7771;48.478;8.936;2023-03-20T12:36:30;16.00;96.60
15343;DHT22;7771;48.478;8.936;2023-03-20T12:38:55;16.00;97.10
15343;DHT22;7771;48.478;8.936;2023-03-20T12:41:25;16.10;96.80
15343;DHT22;7771;48.478;8.936;2023-03-20T12:49:11;16.80;95.90
15343;DHT22;7771;48.478;8.936;2023-03-20T12:51:55;16.90;95.80
15343;DHT22;7771;48.478;8.936;2023-03-20T12:57:01;16.80;95.60
15343;DHT22;7771;48.478;8.936;2023-03-20T12:59:28;16.80;95.60
15343;DHT22;7771;48.478;8.936;2023-03-20T13:02:00;16.80;95.80
15343;DHT22;7771;48.478;8.936;2023-03-20T13:05:51;16.70;95.90
15343;DHT22;7771;48.478;8.936;2023-03-20T13:07:41;16.70;95.70
15343;DHT22;7771;48.478;8.936;2023-03-20T13:10:19;16.60;95.50
15343;DHT22;7771;48.478;8.936;2023-03-20T13:13:05;16.70;95.50
15343;DHT22;7771;48.478;8.936;2023-03-20T13:15:33;16.70;95.10
15343;DHT22;7771;48.478;8.936;2023-03-20T13:18:06;16.70;95.00
15343;DHT22;7771;48.478;8.936;2023-03-20T13:21:07;16.70;95.00
15343;DHT22;7771;48.478;8.936;2023-03-20T13:23:29;16.70;94.80
15343;DHT22;7771;48.478;8.936;2023-03-20T13:26:00;16.60;94.60
15343;DHT22;7771;48.478;8.936;2023-03-20T13:28:31;16.70;94.70
15343;DHT22;7771;48.478;8.936;2023-03-20T13:31:01;16.70;94.70
15343;DHT22;7771;48.478;8.936;2023-03-20T13:36:24;16.70;94.70
15343;DHT22;7771;48.478;8.936;2023-03-20T13:38:48;16.60;94.70
15343;DHT22;7771;48.478;8.936;2023-03-20T13:41:14;16.60;94.60
15343;DHT22;7771;48.478;8.936;2023-03-20T13:46:17;16.70;94.00
15343;DHT22;7771;48.478;8.936;2023-03-20T13:48:43;16.70;94.20
15343;DHT22;7771;48.478;8.936;2023-03-20T13:51:25;16.70;94.50
15343;DHT22;7771;48.478;8.936;2023-03-20T13:54:00;16.70;94.40
15343;DHT22;7771;48.478;8.936;2023-03-20T13:56:33;16.80;94.00
15343;DHT22;7771;48.478;8.936;2023-03-20T13:59:30;16.80;93.90
15343;DHT22;7771;48.478;8.936;2023-03-20T14:01:47;16.60;93.80
15343;DHT22;7771;48.478;8.936;2023-03-20T14:04:13;16.60;94.20
15343;DHT22;7771;48.478;8.936;2023-03-20T14:06:43;16.50;94.00
15343;DHT22;7771;48.478;8.936;2023-03-20T14:11:47;16.40;94.50
15343;DHT22;7771;48.478;8.936;2023-03-20T14:14:16;16.40;94.50
15343;DHT22;7771;48.478;8.936;2023-03-20T14:16:41;16.40;94.60
15343;DHT22;7771;48.478;8.936;2023-03-20T14:19:16;16.30;94.50
15343;DHT22;7771;48.478;8.936;2023-03-20T14:21:45;16.20;94.50
15343;DHT22;7771;48.478;8.936;2023-03-20T14:24:13;16.20;94.50
15343;DHT22;7771;48.478;8.936;2023-03-20T14:26:39;16.20;94.60
15343;DHT22;7771;48.478;8.936;2023-03-20T14:29:35;16.20;94.70
15343;DHT22;7771;48.478;8.936;2023-03-20T14:34:45;16.10;94.60
15343;DHT22;7771;48.478;8.936;2023-03-20T14:37:27;16.10;94.80
15343;DHT22;7771;48.478;8.936;2023-03-20T14:39:56;16.10;94.40
15343;DHT22;7771;48.478;8.936;2023-03-20T14:42:54;16.10;94.70
15343;DHT22;7771;48.478;8.936;2023-03-20T14:45:19;16.00;94.60
15343;DHT22;7771;48.478;8.936;2023-03-20T14:47:47;16.00;94.70
15343;DHT22;7771;48.478;8.936;2023-03-20T14:50:38;16.00;94.60
15343;DHT22;7771;48.478;8.936;2023-03-20T14:53:17;16.00;94.90
15343;DHT22;7771;48.478;8.936;2023-03-20T14:55:57;16.00;94.80
15343;DHT22;7771;48.478;8.936;2023-03-20T15:01:05;15.90;95.00
15343;DHT22;7771;48.478;8.936;2023-03-20T15:03:32;15.90;95.30
15343;DHT22;7771;48.478;8.936;2023-03-20T15:06:00;15.90;95.60
15343;DHT22;7771;48.478;8.936;2023-03-20T15:08:28;16.00;95.40
15343;DHT22;7771;48.478;8.936;2023-03-20T15:10:55;15.90;95.60
15343;DHT22;7771;48.478;8.936;2023-03-20T15:13:20;15.90;95.60
15343;DHT22;7771;48.478;8.936;2023-03-20T15:15:53;15.80;95.80
15343;DHT22;7771;48.478;8.936;2023-03-20T15:18:18;15.80;95.80
15343;DHT22;7771;48.478;8.936;2023-03-20T15:20:45;15.80;95.80
15343;DHT22;7771;48.478;8.936;2023-03-20T15:23:12;15.80;96.00
15343;DHT22;7771;48.478;8.936;2023-03-20T15:25:41;15.70;96.00
15343;DHT22;7771;48.478;8.936;2023-03-20T15:28:06;15.70;96.20
15343;DHT22;7771;48.478;8.936;2023-03-20T15:30:35;15.70;96.20
15343;DHT22;7771;48.478;8.936;2023-03-20T15:33:00;15.60;96.40
15343;DHT22;7771;48.478;8.936;2023-03-20T15:35:27;15.60;96.70
15343;DHT22;7771;48.478;8.936;2023-03-20T15:37:55;15.60;96.60
15343;DHT22;7771;48.478;8.936;2023-03-20T15:40:28;15.60;96.70
15343;DHT22;7771;48.478;8.936;2023-03-20T15:42:59;15.50;96.60
15343;DHT22;7771;48.478;8.936;2023-03-20T15:45:28;15.50;96.70
15343;DHT22;7771;48.478;8.936;2023-03-20T15:47:59;15.60;96.70
15343;DHT22;7771;48.478;8.936;2023-03-20T15:50:25;15.50;96.90
15343;DHT22;7771;48.478;8.936;2023-03-20T15:52:53;15.50;96.50
15343;DHT22;7771;48.478;8.936;2023-03-20T15:55:21;15.50;96.70
15343;DHT22;7771;48.478;8.936;2023-03-20T15:57:47;15.50;96.40
15343;DHT22;7771;48.478;8.936;2023-03-20T16:00:24;15.50;96.30
15343;DHT22;7771;48.478;8.936;2023-03-20T16:02:44;15.40;96.50
15343;DHT22;7771;48.478;8.936;2023-03-20T16:05:14;15.40;96.70
15343;DHT22;7771;48.478;8.936;2023-03-20T16:07:40;15.40;96.70
15343;DHT22;7771;48.478;8.936;2023-03-20T16:10:16;15.40;96.50
15343;DHT22;7771;48.478;8.936;2023-03-20T16:12:49;15.40;96.40
15343;DHT22;7771;48.478;8.936;2023-03-20T16:15:16;15.40;96.60
15343;DHT22;7771;48.478;8.936;2023-03-20T16:17:43;15.30;96.40
15343;DHT22;7771;48.478;8.936;2023-03-20T16:20:14;15.20;96.50
15343;DHT22;7771;48.478;8.936;2023-03-20T16:22:41;15.20;96.30
15343;DHT22;7771;48.478;8.936;2023-03-20T16:25:11;15.20;96.30
15343;DHT22;7771;48.478;8.936;2023-03-20T16:27:35;15.20;96.20
15343;DHT22;7771;48.478;8.936;2023-03-20T16:30:04;15.20;96.30
15343;DHT22;7771;48.478;8.936;2023-03-20T16:32:36;15.10;96.70
15343;DHT22;7771;48.478;8.936;2023-03-20T16:35:02;15.00;96.60
15343;DHT22;7771;48.478;8.936;2023-03-20T16:37:29;15.00;96.80
15343;DHT22;7771;48.478;8.936;2023-03-20T16:40:03;15.00;96.90
15343;DHT22;7771;48.478;8.936;2023-03-20T16:42:29;14.90;97.20
15343;DHT22;7771;48.478;8.936;2023-03-20T16:44:56;15.00;97.40
15343;DHT22;7771;48.478;8.936;2023-03-20T16:47:23;14.90;97.50